Telemetry
Timestamp Node Air Util TX Channel Util Battery Uptime Voltage Current Barometric Pressure Relative Humidity Temperature Gas Resistance
2026-09-02 18:40:36 IIXF 1.35% 3.9% 101% 1138952 4.26 V
2026-09-02 18:40:36 IIXF 1.35% 3.9% 101% 1138952 4.26 V
2026-09-02 18:39:11 7274 1.11% 2.3% 100% 2380747 4.12 V
2026-09-02 18:39:11 7274 1.11% 2.3% 100% 2380747 4.12 V
2026-09-02 18:38:27 ah02 73.22% 18.06°C
2026-09-02 18:38:26 ah02 73.22% 18.06°C
2026-09-02 18:38:25 ah02 73.22% 18.06°C
2026-09-02 18:38:20 ah02 73.22% 18.06°C
2026-09-02 18:38:19 ah02 73.22% 18.06°C
2026-09-02 18:38:04 IIXF 855.77 hPa 22.77% 26.03°C 166.96 Ohm
2026-09-02 18:38:03 IIXF 855.77 hPa 22.77% 26.03°C 166.96 Ohm
2026-09-02 18:37:59 ah02 0.04% 11.6% 69% 60 3.89 V
2026-09-02 18:37:58 ah02 0.04% 11.6% 69% 60 3.89 V
2026-09-02 18:37:58 ah02 0.04% 11.6% 69% 60 3.89 V
2026-09-02 18:37:56 ah02 0.04% 11.6% 69% 60 3.89 V
2026-09-02 18:37:55 ah02 0.04% 11.6% 69% 60 3.89 V
2026-09-02 18:36:09 PTRH 0.3% 0.0% 55% 1403718 3.77 V
2026-09-02 18:36:08 PTRH 0.3% 0.0% 55% 1403718 3.77 V
2026-09-02 18:35:41 EN05 0.8% 7.0% 78% 6473 3.97 V
2026-09-02 18:33:01 LRX1 1004.62 hPa 47.72% 21.97°C
2026-09-02 18:32:59 LRX1 1004.62 hPa 47.72% 21.97°C
2026-09-02 18:32:58 LRX1 1004.62 hPa 47.72% 21.97°C
2026-09-02 18:32:58 LRX1 1004.62 hPa 47.72% 21.97°C
2026-09-02 18:32:55 LRX1 0.83% 2.1% 101% 8165439 4.85 V
2026-09-02 18:32:55 LRX1 0.83% 2.1% 101% 8165439 4.85 V
2026-09-02 18:32:55 LRX1 0.83% 2.1% 101% 8165439 4.85 V
2026-09-02 18:32:55 LRX1 0.83% 2.1% 101% 8165439 4.85 V
2026-09-02 18:32:55 LRX1 0.83% 2.1% 101% 8165439 4.85 V
2026-09-02 18:32:29 BB04 1.39% 4.0% 101% 854108 -0.0 V
2026-09-02 18:32:29 BB04 1.39% 4.0% 101% 854108 -0.0 V
2026-09-02 18:32:29 BB04 1.39% 4.0% 101% 854108 -0.0 V
2026-09-02 18:32:24 BB04 1.39% 4.0% 101% 854108 -0.0 V
2026-09-02 18:32:24 BB04 1.39% 4.0% 101% 854108 -0.0 V
2026-09-02 18:31:41 RF03 0.07% 0.0% 99% 1161526 4.19 V
2026-09-02 18:31:41 RF03 0.07% 0.0% 99% 1161526 4.19 V
2026-09-02 18:31:34 RF03 0.07% 0.0% 99% 1161526 4.19 V
2026-09-02 18:31:34 RF03 0.07% 0.0% 99% 1161526 4.19 V
2026-09-02 18:31:34 RF03 0.07% 0.0% 99% 1161526 4.19 V
2026-09-02 18:31:25 ah01 0.36% 0.0% 96% 6163402 4.15 V
2026-09-02 18:31:25 ah01 0.36% 0.0% 96% 6163402 4.15 V
2026-09-02 18:29:57 ah03
2026-09-02 18:29:53 ah03
2026-09-02 18:29:50 ah03
2026-09-02 18:29:50 ah03
2026-09-02 18:29:49 ah03 0.75% 0.0% 81% 3870621 4.0 V
2026-09-02 18:29:47 ah03 0.75% 0.0% 81% 3870621 4.0 V
2026-09-02 18:29:47 ah03 0.75% 0.0% 81% 3870621 4.0 V
2026-09-02 18:29:43 ah03 0.75% 0.0% 81% 3870621 4.0 V
2026-09-02 18:29:42 ah03 0.75% 0.0% 81% 3870621 4.0 V
2026-09-02 18:26:23 LMGB 0.27% 2.8% 101% 989526 -0.0 V
2026-09-02 18:26:23 LMGB 0.27% 2.8% 101% 989526 -0.0 V
2026-09-02 18:23:58 htec 3.02% 6.4% 101% 34305 4.25 V
2026-09-02 18:23:58 htec 3.02% 6.4% 101% 34305 4.25 V
2026-09-02 18:23:08 TG08 28.74°C
2026-09-02 18:23:06 TG08 0.37% 0.0% 86% 370009 4.01 V
2026-09-02 18:22:40 PMT2 26.24°C
2026-09-02 18:22:39 PMT2 26.24°C
2026-09-02 18:22:38 PMT2 26.24°C
2026-09-02 18:22:36 PMT2 26.24°C
2026-09-02 18:22:36 PMT2 26.24°C
2026-09-02 18:22:23 PMT2 1.3% 3.1% 101% 1771007 4.21 V
2026-09-02 18:22:21 PMT2 1.3% 3.1% 101% 1771007 4.21 V
2026-09-02 18:22:21 PMT2 1.3% 3.1% 101% 1771007 4.21 V
2026-09-02 18:20:43 EEPr 0.15% 0.0% 101% 2274741 4.34 V
2026-09-02 18:20:43 EEPr 0.15% 0.0% 101% 2274741 4.34 V
2026-09-02 18:20:18 LML2 0.31% 1.2% 100% 514179 4.16 V
2026-09-02 18:20:18 LML2 0.31% 1.2% 100% 514179 4.16 V
2026-09-02 18:20:07 LML2 0.31% 1.2% 100% 514179 4.16 V
2026-09-02 18:20:07 LML2 0.31% 1.2% 100% 514179 4.16 V
2026-09-02 18:19:36 IIXF 1.38% 3.0% 101% 1137692 4.34 V
2026-09-02 18:19:36 IIXF 1.38% 3.0% 101% 1137692 4.34 V
2026-09-02 18:19:08 DOS 1.5% 3.8% 101% 198918 4.23 V
2026-09-02 18:19:07 DOS 1.5% 3.8% 101% 198918 4.23 V
2026-09-02 18:17:03 IIXF 855.78 hPa 22.95% 25.74°C 190.25 Ohm
2026-09-02 18:17:03 IIXF 855.78 hPa 22.95% 25.74°C 190.25 Ohm
2026-09-02 18:16:55 RF01 0.74% 3.1% 101% 1391018 4.25 V
2026-09-02 18:16:55 RF01 0.74% 3.1% 101% 1391018 4.25 V
2026-09-02 18:16:55 RF01 0.74% 3.1% 101% 1391018 4.25 V
2026-09-02 18:13:03 J8ke 0.81% 4.0% 101% 192276 5.09 V
2026-09-02 18:13:03 J8ke 0.81% 4.0% 101% 192276 5.09 V
2026-09-02 18:13:03 J8ke 0.81% 4.0% 101% 192276 5.09 V
2026-09-02 18:12:50 MONS 0.07% 12.0% 0% 65 2.65 V
2026-09-02 18:12:50 MONS 0.07% 12.0% 0% 65 2.65 V
2026-09-02 18:12:50 MONS 0.07% 12.0% 0% 65 2.65 V
2026-09-02 18:12:35 5RC 1012.27 hPa 56.04% 22.08°C
2026-09-02 18:12:35 5RC 1012.27 hPa 56.04% 22.08°C
2026-09-02 18:10:43 EEPa 852.23 hPa 39.19% 23.2°C
2026-09-02 18:10:43 EEPa 852.23 hPa 39.19% 23.2°C
2026-09-02 18:09:16 LRX1 1004.56 hPa 47.6% 21.91°C
2026-09-02 18:09:15 LRX1 1004.56 hPa 47.6% 21.91°C
2026-09-02 18:09:06 LRX1 1004.56 hPa 47.6% 21.91°C
2026-09-02 18:09:06 LRX1 1004.56 hPa 47.6% 21.91°C
2026-09-02 18:09:06 LRX1 1004.56 hPa 47.6% 21.91°C
2026-09-02 18:09:00 LRX1 0.77% 0.0% 101% 8163999 4.83 V
2026-09-02 18:08:59 LRX1 0.77% 0.0% 101% 8163999 4.83 V
2026-09-02 18:08:59 LRX1 0.77% 0.0% 101% 8163999 4.83 V
2026-09-02 18:08:39 7274 1.11% 1.7% 100% 2378586 4.12 V
2026-09-02 18:08:39 7274 1.11% 1.7% 100% 2378586 4.12 V
2026-09-02 18:06:26 TG08 28.41°C
2026-09-02 18:06:24 TG08 0.53% 1.8% 87% 368208 4.02 V
2026-09-02 18:05:42 EN05 0.63% 5.0% 68% 4672 3.88 V
2026-09-02 18:05:41 EN05 0.63% 5.0% 68% 4672 3.88 V
2026-09-02 18:01:34 RF03 0.02% 0.0% 99% 1159725 4.19 V
2026-09-02 18:01:34 RF03 0.02% 0.0% 99% 1159725 4.19 V
2026-09-02 18:01:34 RF03 0.02% 0.0% 99% 1159725 4.19 V
2026-09-02 18:00:08 PTRH 0.27% 0.0% 53% 1401558 3.74 V
2026-09-02 18:00:08 PTRH 0.27% 0.0% 53% 1401558 3.74 V
2026-09-02 17:59:50 ah03
2026-09-02 17:59:49 ah03 696.34 hPa 76.51% 27.0°C
2026-09-02 17:59:48 ah03
2026-09-02 17:59:48 ah03
2026-09-02 17:59:40 ah03
2026-09-02 17:59:39 ah03
2026-09-02 17:59:33 ah03 0.78% 3.4% 82% 3868804 4.0 V
2026-09-02 17:59:32 ah03 0.78% 3.4% 82% 3868804 4.0 V
2026-09-02 17:58:38 PMT2 26.59°C
2026-09-02 17:58:36 PMT2 26.59°C
2026-09-02 17:58:36 IIXF 1.49% 0.0% 101% 1136432 4.43 V
2026-09-02 17:58:36 IIXF 1.49% 0.0% 101% 1136432 4.43 V
2026-09-02 17:58:35 PMT2 26.59°C
2026-09-02 17:58:24 PMT2 1.42% 7.6% 101% 1769567 4.21 V
2026-09-02 17:58:22 PMT2 1.42% 7.6% 101% 1769567 4.21 V
2026-09-02 17:58:20 PMT2 1.42% 7.6% 101% 1769567 4.21 V
2026-09-02 17:58:20 PMT2 1.42% 7.6% 101% 1769567 4.21 V
2026-09-02 17:58:03 EN11 0.05% 3.0% 101% 25883 4.1 V
2026-09-02 17:58:02 EN11 0.05% 3.0% 101% 25883 4.1 V
2026-09-02 17:56:03 IIXF 855.69 hPa 22.17% 25.99°C 311.7 Ohm
2026-09-02 17:56:03 IIXF 855.69 hPa 22.17% 25.99°C 311.7 Ohm
2026-09-02 17:52:41 ah01 0.58% 0.0% 96% 6161060 4.15 V
2026-09-02 17:52:40 ah01 0.58% 0.0% 96% 6161060 4.15 V
2026-09-02 17:52:40 ah01 0.58% 0.0% 96% 6161060 4.15 V
2026-09-02 17:52:40 ah01 0.58% 0.0% 96% 6161060 4.15 V
2026-09-02 17:52:40 ah01 0.58% 0.0% 96% 6161060 4.15 V
2026-09-02 17:50:37 EEPr 0.14% 0.0% 101% 2272935 4.34 V
2026-09-02 17:50:37 EEPr 0.14% 0.0% 101% 2272935 4.34 V
2026-09-02 17:50:23 LMGB 0.22% 0.0% 101% 987366 -0.0 V
2026-09-02 17:50:22 LMGB 0.22% 0.0% 101% 987366 -0.0 V
2026-09-02 17:47:32 EN01 0.04% 1.0% 66% 188032 3.86 V
2026-09-02 17:47:32 EN01 0.04% 1.0% 66% 188032 3.86 V
2026-09-02 17:45:04 dc64 0.22% 0.0% 94% 1280113 4.11 V
2026-09-02 17:45:03 dc64 0.22% 0.0% 94% 1280113 4.11 V
2026-09-02 17:44:07 LML2 0.23% 1.2% 100% 512019 4.16 V
2026-09-02 17:44:07 LML2 0.23% 1.2% 100% 512019 4.16 V
2026-09-02 17:41:09 EN06 0.65% 2.8% 94% 92109 4.12 V
2026-09-02 17:37:36 IIXF 1.54% 3.9% 101% 1135172 4.38 V
2026-09-02 17:37:36 IIXF 1.54% 3.9% 101% 1135172 4.38 V
2026-09-02 17:36:08 ah02 0.04% 9.6% 71% 61 3.9 V
2026-09-02 17:36:08 ah02 0.04% 9.6% 71% 61 3.9 V
2026-09-02 17:36:07 ah02 0.04% 9.6% 71% 61 3.9 V
2026-09-02 17:36:02 ah02 72.91% 18.54°C
2026-09-02 17:36:02 ah02 72.91% 18.54°C
2026-09-02 17:36:00 ah02 72.91% 18.54°C
2026-09-02 17:36:00 ah02 72.91% 18.54°C
2026-09-02 17:35:45 ah02 0.04% 9.6% 71% 61 3.9 V
2026-09-02 17:35:44 ah02 0.04% 9.6% 71% 61 3.9 V
2026-09-02 17:35:39 EN05 0.43% 2.1% 51% 2871 3.73 V
2026-09-02 17:35:03 IIXF 855.53 hPa 20.5% 27.12°C 397.06 Ohm
2026-09-02 17:35:03 IIXF 855.53 hPa 20.5% 27.12°C 397.06 Ohm
2026-09-02 17:34:38 PMT2 26.47°C
2026-09-02 17:34:36 EEPa 852.25 hPa 38.62% 23.16°C
2026-09-02 17:34:27 PMT2 1.55% 3.0% 101% 1768126 4.2 V
2026-09-02 17:34:22 PMT2 1.55% 3.0% 101% 1768126 4.2 V
2026-09-02 17:34:20 PMT2 1.55% 3.0% 101% 1768126 4.2 V
2026-09-02 17:34:20 PMT2 1.55% 3.0% 101% 1768126 4.2 V
2026-09-02 17:31:32 RF03 0.12% 2.1% 99% 1157924 4.19 V
2026-09-02 17:31:32 RF03 0.12% 2.1% 99% 1157924 4.19 V
2026-09-02 17:31:32 RF03 0.12% 2.1% 99% 1157924 4.19 V
2026-09-02 17:31:23 ah01 0.6% 0.0% 96% 6159799 4.15 V
2026-09-02 17:31:22 ah01 0.6% 0.0% 96% 6159799 4.15 V
2026-09-02 17:31:08 DOS 1.7% 1.8% 100% 196037 4.2 V
2026-09-02 17:31:08 DOS 1.7% 1.8% 100% 196037 4.2 V
2026-09-02 17:28:55 RF01 0.87% 2.1% 100% 1388138 4.19 V
2026-09-02 17:28:55 RF01 0.87% 2.1% 100% 1388138 4.19 V
2026-09-02 17:28:55 RF01 0.87% 2.1% 100% 1388138 4.19 V
2026-09-02 17:28:36 ah03 696.34 hPa 73.32% 27.0°C
2026-09-02 17:28:36 ah03 696.34 hPa 73.32% 27.0°C
2026-09-02 17:28:33 ah03 0.75% 9.5% 83% 3866935 4.01 V
2026-09-02 17:28:32 ah03 0.75% 9.5% 83% 3866935 4.01 V
2026-09-02 17:27:10 7274 1.11% 4.0% 100% 2376426 4.12 V
2026-09-02 17:27:10 7274 1.11% 4.0% 100% 2376426 4.12 V
2026-09-02 17:24:08 PTRH 0.21% 0.0% 58% 1399398 3.79 V
2026-09-02 17:24:08 PTRH 0.21% 0.0% 58% 1399398 3.79 V
2026-09-02 17:23:02 TG08 28.63°C
2026-09-02 17:23:01 TG08 0.72% 7.6% 88% 366407 4.03 V
2026-09-02 17:22:33 EEPa 0.13% 0.0% 100% 6798439 4.14 V
2026-09-02 17:22:32 EEPa 0.13% 0.0% 100% 6798439 4.14 V
2026-09-02 17:21:50 tge0 3.27% 7.0% 95% 9808613 4.12 V
2026-09-02 17:21:49 tge0 3.27% 7.0% 95% 9808613 4.12 V
2026-09-02 17:21:42 tge0 3.27% 7.0% 95% 9808613 4.12 V
2026-09-02 17:21:42 tge0 3.27% 7.0% 95% 9808613 4.12 V
2026-09-02 17:21:00 LRX1 1.27% 0.0% 101% 8161118 4.85 V
2026-09-02 17:20:59 LRX1 1.27% 0.0% 101% 8161118 4.85 V
2026-09-02 17:20:57 LRX1 1.27% 0.0% 101% 8161118 4.85 V
2026-09-02 17:20:57 LRX1 1.27% 0.0% 101% 8161118 4.85 V
2026-09-02 17:20:30 EEPr 0.26% 0.0% 101% 2271128 4.34 V
2026-09-02 17:20:30 EEPr 0.26% 0.0% 101% 2271128 4.34 V
2026-09-02 17:17:58 htec 4.08% 0.0% 101% 30345 4.22 V
2026-09-02 17:17:58 htec 4.08% 0.0% 101% 30345 4.22 V
2026-09-02 17:16:36 IIXF 1.53% 3.3% 101% 1133912 4.45 V
2026-09-02 17:16:36 IIXF 1.53% 3.3% 101% 1133912 4.45 V
2026-09-02 17:14:22 LMGB 0.2% 3.0% 101% 985205 -0.0 V
2026-09-02 17:14:22 LMGB 0.2% 3.0% 101% 985205 -0.0 V
2026-09-02 17:14:03 IIXF 855.51 hPa 19.13% 28.04°C 476.14 Ohm
2026-09-02 17:14:03 IIXF 855.51 hPa 19.13% 28.04°C 476.14 Ohm
2026-09-02 17:13:14 5RC 1.63% 6.8% 101% 344698 4.21 V
2026-09-02 17:13:13 5RC 1.63% 6.8% 101% 344698 4.21 V
2026-09-02 17:12:57 5RC 1012.16 hPa 51.86% 23.94°C
2026-09-02 17:12:57 5RC 1012.16 hPa 51.86% 23.94°C
2026-09-02 17:10:39 PMT2 26.24°C
2026-09-02 17:10:38 PMT2 26.24°C
2026-09-02 17:10:36 PMT2 26.24°C
2026-09-02 17:10:34 PMT2 26.24°C
2026-09-02 17:10:34 PMT2 26.24°C
2026-09-02 17:10:23 PMT2 1.96% 0.0% 101% 1766686 4.21 V
2026-09-02 17:10:23 PMT2 1.96% 0.0% 101% 1766686 4.21 V
2026-09-02 17:10:21 PMT2 1.96% 0.0% 101% 1766686 4.21 V
2026-09-02 17:10:21 ah01 0.7% 0.0% 96% 6158538 4.15 V
2026-09-02 17:10:21 ah01 0.7% 0.0% 96% 6158538 4.15 V
2026-09-02 17:10:20 PMT2 1.96% 0.0% 101% 1766686 4.21 V
2026-09-02 17:10:19 PMT2 1.96% 0.0% 101% 1766686 4.21 V
2026-09-02 17:05:38 EN05 0.2% 4.3% 36% 1071 3.59 V
2026-09-02 17:01:36 RF03 0.19% 0.0% 99% 1156123 4.19 V
2026-09-02 17:01:36 RF03 0.19% 0.0% 99% 1156123 4.19 V
2026-09-02 17:01:32 RF03 0.19% 0.0% 99% 1156123 4.19 V
2026-09-02 17:01:31 RF03 0.19% 0.0% 99% 1156123 4.19 V
2026-09-02 17:01:31 RF03 0.19% 0.0% 99% 1156123 4.19 V
2026-09-02 16:58:36 IIXF 1.51% 2.2% 101% 1132832 4.45 V
2026-09-02 16:58:36 IIXF 1.51% 2.2% 101% 1132832 4.45 V
2026-09-02 16:58:28 EEPa 852.14 hPa 37.93% 23.05°C
2026-09-02 16:58:27 EEPa 852.14 hPa 37.93% 23.05°C
2026-09-02 16:58:00 EN11 0.08% 0.0% 101% 22280 4.1 V
2026-09-02 16:58:00 EN11 0.08% 0.0% 101% 22280 4.1 V
2026-09-02 16:57:50 ah03 0.75% 6.8% 84% 3865081 4.01 V
2026-09-02 16:57:50 ah03 0.75% 6.8% 84% 3865081 4.01 V
2026-09-02 16:57:49 ah03 0.75% 6.8% 84% 3865081 4.01 V
2026-09-02 16:57:37 ah03 0.75% 6.8% 84% 3865081 4.01 V
2026-09-02 16:57:37 ah03 0.75% 6.8% 84% 3865081 4.01 V
2026-09-02 16:56:03 IIXF 855.49 hPa 17.85% 29.0°C 491.1 Ohm
2026-09-02 16:56:03 IIXF 855.49 hPa 17.85% 29.0°C 491.1 Ohm
2026-09-02 16:54:42 MONS 0.98% 2.0% 101% 27068 -0.0 V
2026-09-02 16:54:41 MONS 0.98% 2.0% 101% 27068 -0.0 V
2026-09-02 16:54:41 MONS 0.98% 2.0% 101% 27068 -0.0 V
2026-09-02 16:53:01 TG08 31.82°C
2026-09-02 16:53:00 TG08 0.8% 0.0% 89% 364606 4.03 V
2026-09-02 16:52:20 ah01 0.69% 0.0% 96% 6157457 4.15 V
2026-09-02 16:52:20 ah01 0.69% 0.0% 96% 6157457 4.15 V
2026-09-02 16:51:03 7274 1.08% 2.3% 100% 2374266 4.13 V
2026-09-02 16:51:03 7274 1.08% 2.3% 100% 2374266 4.13 V
2026-09-02 16:50:26 EEPr 0.34% 0.0% 101% 2269322 4.34 V
2026-09-02 16:50:26 EEPr 0.34% 0.0% 101% 2269322 4.34 V
2026-09-02 16:48:56 3bb8 1.99% 17.5% 101% 2343413 5.01 V
2026-09-02 16:48:55 3bb8 1.99% 17.5% 101% 2343413 5.01 V
2026-09-02 16:48:08 PTRH 0.4% 0.0% 58% 1397238 3.79 V
2026-09-02 16:48:07 PTRH 0.4% 0.0% 58% 1397238 3.79 V
2026-09-02 16:47:28 EN01 0.1% 13.7% 68% 184431 3.88 V
2026-09-02 16:47:28 EN01 0.1% 13.7% 68% 184431 3.88 V
2026-09-02 16:45:28 MSHU 4.97% 14.1% 101% 43301 4.21 V
2026-09-02 16:45:27 MSHU 4.97% 14.1% 101% 43301 4.21 V
2026-09-02 16:45:27 MSHU 4.97% 14.1% 101% 43301 4.21 V
2026-09-02 16:45:19 MSHU 4.97% 14.1% 101% 43301 4.21 V
2026-09-02 16:43:21 Rhee 0.59% 8.8% 98% 10687 4.16 V
2026-09-02 16:43:21 Rhee 0.59% 8.8% 98% 10687 4.16 V
2026-09-02 16:43:20 Rhee 0.59% 8.8% 98% 10687 4.16 V
2026-09-02 16:43:20 Rhee 0.59% 8.8% 98% 10687 4.16 V
2026-09-02 16:43:07 DOS 2.01% 4.4% 101% 193157 4.21 V
2026-09-02 16:43:07 DOS 2.01% 4.4% 101% 193157 4.21 V
2026-09-02 16:41:11 EN06 0.73% 3.0% 97% 88508 4.16 V
2026-09-02 16:40:55 RF01 0.62% 2.0% 101% 1385258 4.24 V
2026-09-02 16:40:54 RF01 0.62% 2.0% 101% 1385258 4.24 V
2026-09-02 16:40:54 RF01 0.62% 2.0% 101% 1385258 4.24 V
2026-09-02 16:40:36 PMT2 26.93°C
2026-09-02 16:40:36 IIXF 1.45% 1.7% 101% 1131752 4.42 V
2026-09-02 16:40:36 IIXF 1.45% 1.7% 101% 1131752 4.42 V
2026-09-02 16:40:34 PMT2 26.93°C
2026-09-02 16:40:34 PMT2 26.93°C
2026-09-02 16:40:23 PMT2 1.81% 0.0% 101% 1764885 4.2 V
2026-09-02 16:40:23 PMT2 1.81% 0.0% 101% 1764885 4.2 V
2026-09-02 16:40:21 PMT2 1.81% 0.0% 101% 1764885 4.2 V
2026-09-02 16:40:19 PMT2 1.81% 0.0% 101% 1764885 4.2 V
2026-09-02 16:40:19 PMT2 1.81% 0.0% 101% 1764885 4.2 V
2026-09-02 16:38:36 IIXF 1.48% 1.7% 101% 1127971 4.42 V
2026-09-02 16:38:36 IIXF 1.48% 1.7% 101% 1127971 4.42 V
2026-09-02 16:38:22 LMGB 0.19% 1.6% 101% 983045 -0.0 V
2026-09-02 16:38:22 LMGB 0.19% 1.6% 101% 983045 -0.0 V
2026-09-02 16:38:03 IIXF 855.5 hPa 16.71% 29.47°C 510.51 Ohm
2026-09-02 16:38:03 IIXF 855.5 hPa 16.71% 29.47°C 510.51 Ohm
2026-09-02 16:36:47 J8ke 0.95% 0.0% 101% 186496 5.09 V
2026-09-02 16:36:47 J8ke 0.95% 0.0% 101% 186496 5.09 V
2026-09-02 16:36:47 J8ke 0.95% 0.0% 101% 186496 5.09 V
2026-09-02 16:36:47 J8ke 0.95% 0.0% 101% 186496 5.09 V
2026-09-02 16:33:37 ah02 61.43% 20.54°C
2026-09-02 16:33:36 ah02 61.43% 20.54°C
2026-09-02 16:33:36 ah02 61.43% 20.54°C
2026-09-02 16:33:34 ah02 61.43% 20.54°C
2026-09-02 16:33:34 ah02 61.43% 20.54°C
2026-09-02 16:33:17 ah02 0.04% 11.4% 73% 60 3.92 V
2026-09-02 16:33:17 ah02 0.04% 11.4% 73% 60 3.92 V
2026-09-02 16:33:16 dc64 0.33% 0.0% 96% 1275793 4.15 V
2026-09-02 16:33:15 dc64 0.33% 0.0% 96% 1275793 4.15 V
2026-09-02 16:33:15 dc64 0.33% 0.0% 96% 1275793 4.15 V
2026-09-02 16:33:14 ah02 0.04% 11.4% 73% 60 3.92 V
2026-09-02 16:33:09 ah02 0.04% 11.4% 73% 60 3.92 V
2026-09-02 16:33:09 ah02 0.04% 11.4% 73% 60 3.92 V
2026-09-02 16:33:01 LRX1 1005.16 hPa 46.44% 22.18°C
2026-09-02 16:33:01 LRX1 1005.16 hPa 46.44% 22.18°C
2026-09-02 16:32:57 LRX1 1005.16 hPa 46.44% 22.18°C
2026-09-02 16:32:57 LRX1 1005.16 hPa 46.44% 22.18°C
2026-09-02 16:32:56 LRX1 0.95% 7.6% 101% 8158238 4.85 V
2026-09-02 16:32:54 LRX1 0.95% 7.6% 101% 8158238 4.85 V
2026-09-02 16:32:54 LRX1 0.95% 7.6% 101% 8158238 4.85 V
2026-09-02 16:31:49 RF03 0.18% 4.0% 99% 1154323 4.18 V
2026-09-02 16:31:48 RF03 0.18% 4.0% 99% 1154323 4.18 V
2026-09-02 16:31:48 RF03 0.18% 4.0% 99% 1154323 4.18 V
2026-09-02 16:31:37 RF03 0.18% 4.0% 99% 1154323 4.18 V
2026-09-02 16:31:37 RF03 0.18% 4.0% 99% 1154323 4.18 V
2026-09-02 16:27:31 ah03 696.34 hPa 69.33% 27.0°C
2026-09-02 16:27:30 ah03 696.34 hPa 69.33% 27.0°C
2026-09-02 16:27:30 ah03 696.34 hPa 69.33% 27.0°C
2026-09-02 16:27:00 ah03
2026-09-02 16:26:59 ah03 696.34 hPa 69.33% 27.0°C
2026-09-02 16:26:59 ah03 0.75% 20.2% 84% 3863241 4.02 V
2026-09-02 16:26:58 ah03 0.75% 20.2% 84% 3863241 4.02 V
2026-09-02 16:24:41 MONS 0.94% 3.4% 101% 25268 -0.0 V
2026-09-02 16:24:41 MONS 0.94% 3.4% 101% 25268 -0.0 V
2026-09-02 16:24:41 MONS 0.94% 3.4% 101% 25268 -0.0 V
2026-09-02 16:22:59 TG08 0.66% 3.4% 90% 362804 4.04 V
2026-09-02 16:22:59 TG08 34.58°C
2026-09-02 16:22:20 EEPa 852.21 hPa 36.99% 22.94°C
2026-09-02 16:22:20 EEPa 852.21 hPa 36.99% 22.94°C
2026-09-02 16:20:18 EEPr 0.29% 0.0% 101% 2267516 4.34 V
2026-09-02 16:20:18 EEPr 0.29% 0.0% 101% 2267516 4.34 V
2026-09-02 16:19:35 IIXF 1.45% 1.1% 101% 1130491 4.42 V
2026-09-02 16:19:35 IIXF 1.45% 1.1% 101% 1130491 4.42 V
2026-09-02 16:17:03 IIXF 855.62 hPa 15.25% 30.02°C 591.92 Ohm
2026-09-02 16:17:03 IIXF 855.62 hPa 15.25% 30.02°C 591.92 Ohm
2026-09-02 16:16:35 PMT2 26.52°C
2026-09-02 16:16:33 PMT2 26.52°C
2026-09-02 16:16:33 PMT2 26.52°C
2026-09-02 16:16:26 ah01 0.55% 0.0% 96% 6155295 4.15 V
2026-09-02 16:16:25 ah01 0.55% 0.0% 96% 6155295 4.15 V
2026-09-02 16:16:23 PMT2 1.47% 0.0% 101% 1763444 4.2 V
2026-09-02 16:16:23 PMT2 1.47% 0.0% 101% 1763444 4.2 V
2026-09-02 16:16:21 PMT2 1.47% 0.0% 101% 1763444 4.2 V
2026-09-02 16:16:18 ah01 0.55% 0.0% 96% 6155295 4.15 V
2026-09-02 16:16:18 PMT2 1.47% 0.0% 101% 1763444 4.2 V
2026-09-02 16:16:18 PMT2 1.47% 0.0% 101% 1763444 4.2 V
2026-09-02 16:16:18 ah01 0.55% 0.0% 96% 6155295 4.15 V
2026-09-02 16:15:03 7274 0.95% 3.6% 100% 2372106 4.12 V
2026-09-02 16:15:02 7274 0.95% 3.6% 100% 2372106 4.12 V
2026-09-02 16:13:28 5RC 1011.96 hPa 42.44% 30.48°C
2026-09-02 16:13:28 5RC 1011.96 hPa 42.44% 30.48°C
2026-09-02 16:13:24 5RC 1011.96 hPa 42.44% 30.48°C
2026-09-02 16:12:39 J8ke 0.75% 2.0% 101% 185051 5.1 V
2026-09-02 16:12:39 J8ke 0.75% 2.0% 101% 185051 5.1 V
2026-09-02 16:12:39 J8ke 0.75% 2.0% 101% 185051 5.1 V
2026-09-02 16:12:07 PTRH 0.34% 0.0% 59% 1395077 3.8 V
2026-09-02 16:12:07 PTRH 0.34% 0.0% 59% 1395077 3.8 V
2026-09-02 16:09:00 LRX1 0.96% 3.2% 101% 8156798 4.85 V
2026-09-02 16:09:00 LRX1 0.96% 3.2% 101% 8156798 4.85 V
2026-09-02 16:08:55 LRX1 0.96% 3.2% 101% 8156798 4.85 V
2026-09-02 16:08:55 LRX1 0.96% 3.2% 101% 8156798 4.85 V
2026-09-02 16:08:22 BB04 1.26% 0.0% 101% 845467 -0.0 V
2026-09-02 16:08:22 BB04 1.26% 0.0% 101% 845467 -0.0 V
2026-09-02 16:08:22 BB04 1.26% 0.0% 101% 845467 -0.0 V
2026-09-02 16:08:22 BB04 1.26% 0.0% 101% 845467 -0.0 V
2026-09-02 16:06:58 htec 3.04% 1.0% 101% 26084 4.25 V
2026-09-02 16:06:57 htec 3.04% 1.0% 101% 26084 4.25 V
2026-09-02 16:05:31 788a 0.3% 0.0% 35% 115293 3.58 V
2026-09-02 16:05:30 788a 0.3% 0.0% 35% 115293 3.58 V
2026-09-02 16:05:30 788a 0.3% 0.0% 35% 115293 3.58 V
2026-09-02 16:02:22 LMGB 0.23% 0.0% 101% 980885 -0.0 V
2026-09-02 16:02:21 LMGB 0.23% 0.0% 101% 980885 -0.0 V
2026-09-02 16:00:55 3bb8 1.84% 4.6% 101% 2340533 5.06 V
2026-09-02 16:00:55 3bb8 1.84% 4.6% 101% 2340533 5.06 V
2026-09-02 15:58:35 IIXF 1.34% 3.4% 101% 1129231 4.41 V
2026-09-02 15:58:35 IIXF 1.34% 3.4% 101% 1129231 4.41 V
2026-09-02 15:58:17 ah01 0.61% 3.4% 97% 6154214 4.15 V
2026-09-02 15:58:17 ah01 0.61% 3.4% 97% 6154214 4.15 V
2026-09-02 15:57:58 EN11 0.02% 4.4% 101% 18677 4.1 V
2026-09-02 15:57:57 EN11 0.02% 4.4% 101% 18677 4.1 V
2026-09-02 15:56:08 IIXF 855.71 hPa 13.69% 30.48°C 592.96 Ohm
2026-09-02 15:56:08 IIXF 855.6 hPa 14.29% 30.27°C 697.64 Ohm
2026-09-02 15:56:08 IIXF 855.71 hPa 13.69% 30.48°C 592.96 Ohm
2026-09-02 15:55:55 ah03
2026-09-02 15:55:55 ah03
2026-09-02 15:55:51 ah03
2026-09-02 15:55:50 ah03
2026-09-02 15:55:48 ah03 696.34 hPa 68.32% 27.0°C
2026-09-02 15:55:47 ah03 696.34 hPa 68.32% 27.0°C
2026-09-02 15:55:42 ah03 0.77% 5.7% 85% 3861365 4.02 V
2026-09-02 15:55:42 ah03 0.77% 5.7% 85% 3861365 4.02 V
2026-09-02 15:55:22 DOS 1.52% 7.1% 100% 190277 4.2 V
2026-09-02 15:55:22 DOS 1.52% 7.1% 100% 190277 4.2 V
2026-09-02 15:55:07 DOS 1.52% 7.1% 100% 190277 4.2 V
2026-09-02 15:55:06 DOS 1.52% 7.1% 100% 190277 4.2 V
2026-09-02 15:54:04 Jim1 0.89% 0.9% 92% 17337560 4.08 V
2026-09-02 15:54:04 Jim1 0.89% 0.9% 92% 17337560 4.08 V
2026-09-02 15:54:04 Jim1 0.89% 0.9% 92% 17337560 4.08 V
2026-09-02 15:53:56 Jim1 0.89% 0.9% 92% 17337560 4.08 V
2026-09-02 15:52:58 TG08 0.62% 4.6% 90% 361004 4.05 V
2026-09-02 15:52:58 TG08 34.92°C
2026-09-02 15:52:54 RF01 0.93% 3.9% 101% 1382377 4.26 V
2026-09-02 15:52:54 RF01 0.93% 3.9% 101% 1382377 4.26 V
2026-09-02 15:52:54 RF01 0.93% 3.9% 101% 1382377 4.26 V
2026-09-02 15:52:34 PMT2 26.86°C
2026-09-02 15:52:33 PMT2 26.86°C
2026-09-02 15:52:32 PMT2 26.86°C
2026-09-02 15:52:22 PMT2 1.4% 4.1% 101% 1762004 4.2 V
2026-09-02 15:52:21 PMT2 1.4% 4.1% 101% 1762004 4.2 V
2026-09-02 15:52:20 PMT2 1.4% 4.1% 101% 1762004 4.2 V
2026-09-02 15:52:18 PMT2 1.4% 4.1% 101% 1762004 4.2 V
2026-09-02 15:52:18 PMT2 1.4% 4.1% 101% 1762004 4.2 V
2026-09-02 15:50:51 DJMH 0.25% 0.0% 92% 16881391 4.08 V
2026-09-02 15:50:51 DJMH 0.25% 0.0% 92% 16881391 4.08 V
2026-09-02 15:50:12 EEPr 0.23% 0.0% 101% 2265710 4.34 V
2026-09-02 15:50:11 EEPr 0.23% 0.0% 101% 2265710 4.34 V
2026-09-02 15:48:34 J8ke 0.82% 0.0% 101% 183606 5.09 V
2026-09-02 15:48:33 J8ke 0.82% 0.0% 101% 183606 5.09 V
2026-09-02 15:48:33 J8ke 0.82% 0.0% 101% 183606 5.09 V
2026-09-02 15:48:32 J8ke 0.82% 0.0% 101% 183606 5.09 V
2026-09-02 15:48:31 J8ke 0.82% 0.0% 101% 183606 5.09 V
2026-09-02 15:48:31 J8ke 0.82% 0.0% 101% 183606 5.09 V
2026-09-02 15:47:28 EN01 0.04% 5.0% 69% 180830 3.88 V
2026-09-02 15:47:28 EN01 0.04% 5.0% 69% 180830 3.88 V
2026-09-02 15:46:13 EEPa 852.35 hPa 37.9% 22.84°C
2026-09-02 15:46:13 EEPa 852.35 hPa 37.9% 22.84°C
2026-09-02 15:45:57 LRX1 0.95% 2.4% 101% 8155418 4.85 V
2026-09-02 15:45:57 LRX1 0.95% 2.4% 101% 8155418 4.85 V
2026-09-02 15:45:54 LRX1 0.95% 2.4% 101% 8155418 4.85 V
2026-09-02 15:45:54 LRX1 0.95% 2.4% 101% 8155418 4.85 V
2026-09-02 15:45:34 J8ke 0.38 V
2026-09-02 15:45:34 J8ke 0.38 V
2026-09-02 15:45:34 J8ke 0.38 V
2026-09-02 15:42:53 5RC 0.27% 3.4% 91% 339296 4.06 V
2026-09-02 15:42:53 5RC 0.27% 3.4% 91% 339296 4.06 V
2026-09-02 15:40:16 ah01 0.65% 5.0% 96% 6153133 4.15 V
2026-09-02 15:40:16 ah01 0.65% 5.0% 96% 6153133 4.15 V
2026-09-02 15:39:07 7274 0.84% 4.0% 100% 2369945 4.12 V
2026-09-02 15:39:06 7274 0.84% 4.0% 100% 2369945 4.12 V
2026-09-02 15:36:07 PTRH 0.32% 0.0% 51% 1392917 3.73 V
2026-09-02 15:36:07 PTRH 0.32% 0.0% 51% 1392917 3.73 V
2026-09-02 15:34:21 Rhee 0.51% 10.5% 99% 6547 4.18 V
2026-09-02 15:34:21 Rhee 0.51% 10.5% 99% 6547 4.18 V
2026-09-02 15:34:19 Rhee 0.51% 10.5% 99% 6547 4.18 V
2026-09-02 15:34:19 Rhee 0.51% 10.5% 99% 6547 4.18 V
2026-09-02 15:34:19 Rhee 0.51% 10.5% 99% 6547 4.18 V
2026-09-02 15:34:10 EEPa 0.07% 0.0% 100% 6791936 4.14 V
2026-09-02 15:34:10 EEPa 0.07% 0.0% 100% 6791936 4.14 V
2026-09-02 15:31:11 ah02 58.95% 21.44°C
2026-09-02 15:31:11 ah02 58.95% 21.44°C
2026-09-02 15:31:10 ah02 58.95% 21.44°C
2026-09-02 15:31:07 ah02 58.95% 21.44°C
2026-09-02 15:31:07 ah02 58.95% 21.44°C
2026-09-02 15:30:45 ah02 0.04% 17.0% 72% 61 3.92 V
2026-09-02 15:30:45 ah02 0.04% 17.0% 72% 61 3.92 V
2026-09-02 15:30:45 ah02 0.04% 17.0% 72% 61 3.92 V
2026-09-02 15:30:45 ah02 0.04% 17.0% 72% 61 3.92 V
2026-09-02 15:28:36 PMT2 27.68°C
2026-09-02 15:28:36 PMT2 27.68°C
2026-09-02 15:28:34 PMT2 27.68°C
2026-09-02 15:28:32 PMT2 27.68°C
2026-09-02 15:28:32 PMT2 27.68°C
2026-09-02 15:28:19 PMT2 1.12% 2.2% 101% 1760563 4.2 V
2026-09-02 15:28:18 PMT2 1.12% 2.2% 101% 1760563 4.2 V
2026-09-02 15:28:17 PMT2 1.12% 2.2% 101% 1760563 4.2 V
2026-09-02 15:26:21 LMGB 0.27% 1.1% 101% 978724 -0.0 V
2026-09-02 15:26:21 LMGB 0.27% 1.1% 101% 978724 -0.0 V
2026-09-02 15:26:06 ah03 0.72% 8.5% 84% 3859559 4.02 V
2026-09-02 15:26:05 ah03 0.72% 8.5% 84% 3859559 4.02 V
2026-09-02 15:25:54 ah03
2026-09-02 15:25:53 ah03
2026-09-02 15:25:53 ah03
2026-09-02 15:25:49 ah03
2026-09-02 15:25:48 ah03
2026-09-02 15:24:41 MONS 0.99% 14.7% 101% 21668 -0.0 V
2026-09-02 15:24:41 MONS 0.99% 14.7% 101% 21668 -0.0 V
2026-09-02 15:24:41 MONS 0.99% 14.7% 101% 21668 -0.0 V
2026-09-02 15:22:58 TG08 0.58% 0.0% 90% 359202 4.06 V
2026-09-02 15:22:58 TG08 35.07°C
2026-09-02 15:22:22 ah01 0.54% 0.0% 96% 6152052 4.15 V
2026-09-02 15:22:22 ah01 0.54% 0.0% 96% 6152052 4.15 V
2026-09-02 15:22:18 ah01 0.54% 0.0% 96% 6152052 4.15 V
2026-09-02 15:22:18 ah01 0.54% 0.0% 96% 6152052 4.15 V
2026-09-02 15:22:15 ah01 0.54% 0.0% 96% 6152052 4.15 V
2026-09-02 15:22:15 ah01 0.54% 0.0% 96% 6152052 4.15 V
2026-09-02 15:21:55 LRX1 0.77% 7.2% 101% 8153977 4.85 V
2026-09-02 15:21:55 LRX1 0.77% 7.2% 101% 8153977 4.85 V
2026-09-02 15:21:54 LRX1 0.77% 7.2% 101% 8153977 4.85 V
2026-09-02 15:21:54 LRX1 0.77% 7.2% 101% 8153977 4.85 V
2026-09-02 15:21:07 dc64 0.24% 1.1% 94% 1271473 4.12 V
2026-09-02 15:21:06 dc64 0.24% 1.1% 94% 1271473 4.12 V
2026-09-02 15:21:06 dc64 0.24% 1.1% 94% 1271473 4.12 V
2026-09-02 15:20:20 BB04 1.34% 0.9% 101% 842587 -0.0 V
2026-09-02 15:20:20 BB04 1.34% 0.9% 101% 842587 -0.0 V
2026-09-02 15:20:20 BB04 1.34% 0.9% 101% 842587 -0.0 V
2026-09-02 15:20:05 EEPr 0.23% 0.0% 101% 2263903 4.34 V
2026-09-02 15:20:05 EEPr 0.23% 0.0% 101% 2263903 4.34 V
2026-09-02 15:16:57 3b00 0.04% 7.6% 101% 45 4.22 V
2026-09-02 15:16:57 3b00 0.04% 7.6% 101% 45 4.22 V
2026-09-02 15:16:35 IIXF 1.47% 6.7% 101% 1126711 4.4 V
2026-09-02 15:16:34 IIXF 1.47% 6.7% 101% 1126711 4.4 V
2026-09-02 15:13:56 IIXF 855.58 hPa 15.1% 31.15°C 590.36 Ohm
2026-09-02 15:13:56 IIXF 855.58 hPa 15.1% 31.15°C 590.36 Ohm
2026-09-02 15:12:55 3bb8 1.7% 6.6% 101% 2337653 5.06 V
2026-09-02 15:12:55 3bb8 1.7% 6.6% 101% 2337653 5.06 V
2026-09-02 15:10:15 8848 0.19% 2.1% 19% 28855 3.69 V
2026-09-02 15:10:14 8848 0.19% 2.1% 19% 28855 3.69 V
2026-09-02 15:10:13 8848 0.19% 2.1% 19% 28855 3.69 V
2026-09-02 15:10:06 EEPa 852.57 hPa 40.71% 22.63°C
2026-09-02 15:10:05 EEPa 852.57 hPa 40.71% 22.63°C
2026-09-02 15:07:07 DOS 1.44% 1.8% 99% 187397 4.18 V
2026-09-02 15:07:07 DOS 1.44% 1.8% 99% 187397 4.18 V
2026-09-02 15:05:32 XYZJ 1.47% 13.4% 74% 596717 3.94 V
2026-09-02 15:05:32 XYZJ 1.47% 13.4% 74% 596717 3.94 V
2026-09-02 15:05:32 XYZJ 1.47% 13.4% 74% 596717 3.94 V
2026-09-02 15:04:54 RF01 0.7% 2.9% 101% 1379497 4.21 V
2026-09-02 15:04:54 RF01 0.7% 2.9% 101% 1379497 4.21 V
2026-09-02 15:04:54 RF01 0.7% 2.9% 101% 1379497 4.21 V
2026-09-02 15:04:34 PMT2 27.43°C
2026-09-02 15:04:32 PMT2 27.43°C
2026-09-02 15:04:31 PMT2 27.43°C
2026-09-02 15:04:19 ah01 0.5% 0.0% 97% 6150971 4.15 V
2026-09-02 15:04:19 PMT2 1.23% 0.0% 101% 1759123 4.21 V
2026-09-02 15:04:18 ah01 0.5% 0.0% 97% 6150971 4.15 V
2026-09-02 15:04:17 PMT2 1.23% 0.0% 101% 1759123 4.21 V
2026-09-02 15:04:17 PMT2 1.23% 0.0% 101% 1759123 4.21 V
2026-09-02 15:03:48 htec 2.86% 5.2% 101% 22295 4.26 V
2026-09-02 15:03:48 htec 2.86% 5.2% 101% 22295 4.26 V
2026-09-02 15:03:02 7274 1.05% 4.0% 100% 2367785 4.12 V
2026-09-02 15:03:02 7274 1.05% 4.0% 100% 2367785 4.12 V
2026-09-02 15:00:21 J8ke 0.79% 0.0% 101% 180717 5.06 V
2026-09-02 15:00:21 J8ke 0.79% 0.0% 101% 180717 5.06 V
2026-09-02 15:00:21 J8ke 0.79% 0.0% 101% 180717 5.06 V
2026-09-02 15:00:07 PTRH 0.34% 0.0% 59% 1390757 3.8 V
2026-09-02 15:00:07 PTRH 0.34% 0.0% 59% 1390757 3.8 V
2026-09-02 14:59:41 tge0 2.65% 0.0% 95% 9800092 4.13 V
2026-09-02 14:59:40 tge0 2.65% 0.0% 95% 9800092 4.13 V
2026-09-02 14:58:11 LRX1 0.81% 4.1% 101% 8152537 4.84 V
2026-09-02 14:58:11 LRX1 0.81% 4.1% 101% 8152537 4.84 V
2026-09-02 14:58:11 LRX1 0.81% 4.1% 101% 8152537 4.84 V
2026-09-02 14:58:11 LRX1 0.81% 4.1% 101% 8152537 4.84 V
2026-09-02 14:58:11 LRX1 0.81% 4.1% 101% 8152537 4.84 V
2026-09-02 14:58:06 EN11 0.02% 0.0% 101% 15074 4.1 V
2026-09-02 14:58:06 EN11 0.02% 0.0% 101% 15074 4.1 V
2026-09-02 14:58:04 LRX1 1006.23 hPa 45.88% 22.23°C
2026-09-02 14:57:55 EN11 0.02% 0.0% 101% 15074 4.1 V
2026-09-02 14:57:55 LRX1 1006.23 hPa 45.88% 22.23°C
2026-09-02 14:57:55 LRX1 1006.23 hPa 45.88% 22.23°C
2026-09-02 14:57:55 LRX1 1006.23 hPa 45.88% 22.23°C
2026-09-02 14:57:54 EN11 0.02% 0.0% 101% 15074 4.1 V
2026-09-02 14:57:21 J8ke 0.38 V
2026-09-02 14:57:21 J8ke 0.38 V
2026-09-02 14:55:35 IIXF 1.62% 3.4% 101% 1125451 4.39 V
2026-09-02 14:55:34 IIXF 1.62% 3.4% 101% 1125451 4.39 V
2026-09-02 14:55:32 ah03 696.34 hPa 66.76% 27.0°C
2026-09-02 14:55:31 ah03 696.34 hPa 66.76% 27.0°C
2026-09-02 14:55:30 ah03 696.34 hPa 66.76% 27.0°C
2026-09-02 14:55:09 ah03 696.34 hPa 66.76% 27.0°C
2026-09-02 14:55:09 ah03 696.34 hPa 66.76% 27.0°C
2026-09-02 14:54:44 MONS 0.94% 5.1% 101% 19868 -0.0 V
2026-09-02 14:54:44 MONS 0.94% 5.1% 101% 19868 -0.0 V
2026-09-02 14:54:44 MONS 0.94% 5.1% 101% 19868 -0.0 V
2026-09-02 14:54:41 MONS 0.94% 5.1% 101% 19868 -0.0 V
2026-09-02 14:54:41 MONS 0.94% 5.1% 101% 19868 -0.0 V
2026-09-02 14:54:41 MONS 0.94% 5.1% 101% 19868 -0.0 V
2026-09-02 14:52:57 TG08 33.53°C
2026-09-02 14:52:57 TG08 0.53% 3.6% 91% 357401 4.07 V
2026-09-02 14:52:56 IIXF 855.96 hPa 15.08% 31.18°C 604.71 Ohm
2026-09-02 14:52:55 IIXF 855.96 hPa 15.08% 31.18°C 604.71 Ohm
2026-09-02 14:50:48 DJMH 0.3% 0.0% 92% 16877790 4.09 V
2026-09-02 14:50:48 DJMH 0.3% 0.0% 92% 16877790 4.09 V
2026-09-02 14:50:21 LMGB 0.33% 1.1% 101% 976564 -0.0 V
2026-09-02 14:50:21 LMGB 0.33% 1.1% 101% 976564 -0.0 V
2026-09-02 14:49:59 EEPr 0.19% 0.0% 101% 2262097 4.34 V
2026-09-02 14:49:59 EEPr 0.19% 0.0% 101% 2262097 4.34 V
2026-09-02 14:47:34 EN01 0.08% 0.0% 70% 177229 3.9 V
2026-09-02 14:47:34 EN01 0.08% 0.0% 70% 177229 3.9 V
2026-09-02 14:47:31 EN01 0.08% 0.0% 70% 177229 3.9 V
2026-09-02 14:47:31 EN01 0.08% 0.0% 70% 177229 3.9 V
2026-09-02 14:46:18 ah01 0.57% 0.0% 96% 6149890 4.15 V
2026-09-02 14:46:16 ah01 0.57% 0.0% 96% 6149890 4.15 V
2026-09-02 14:46:16 ah01 0.57% 0.0% 96% 6149890 4.15 V
2026-09-02 14:46:13 ah01 0.57% 0.0% 96% 6149890 4.15 V
2026-09-02 14:46:13 ah01 0.57% 0.0% 96% 6149890 4.15 V
2026-09-02 14:44:06 LML2 0.31% 0.0% 100% 501218 4.16 V
2026-09-02 14:44:06 LML2 0.31% 0.0% 100% 501218 4.16 V
2026-09-02 14:40:35 PMT2 27.26°C
2026-09-02 14:40:34 PMT2 27.26°C
2026-09-02 14:40:33 PMT2 27.26°C
2026-09-02 14:40:31 PMT2 27.26°C
2026-09-02 14:40:31 PMT2 27.26°C
2026-09-02 14:40:21 PMT2 1.27% 0.0% 101% 1757682 4.2 V
2026-09-02 14:40:21 PMT2 1.27% 0.0% 101% 1757682 4.2 V
2026-09-02 14:40:19 PMT2 1.27% 0.0% 101% 1757682 4.2 V
2026-09-02 14:40:17 PMT2 1.27% 0.0% 101% 1757682 4.2 V
2026-09-02 14:40:16 PMT2 1.27% 0.0% 101% 1757682 4.2 V
2026-09-02 14:34:34 IIXF 1.59% 3.5% 101% 1124188 4.41 V
2026-09-02 14:34:33 IIXF 1.59% 3.5% 101% 1124188 4.41 V
2026-09-02 14:34:33 IIXF 1.59% 3.5% 101% 1124188 4.41 V
2026-09-02 14:34:02 LRX1 1006.34 hPa 45.73% 22.23°C
2026-09-02 14:34:02 LRX1 1006.34 hPa 45.73% 22.23°C
2026-09-02 14:33:58 EEPa 852.95 hPa 42.85% 22.36°C
2026-09-02 14:33:57 LRX1 1006.34 hPa 45.73% 22.23°C
2026-09-02 14:33:57 LRX1 1006.34 hPa 45.73% 22.23°C
2026-09-02 14:33:57 LRX1 1006.34 hPa 45.73% 22.23°C
2026-09-02 14:33:57 EEPa 852.95 hPa 42.85% 22.36°C
2026-09-02 14:32:22 BB04 1.48% 3.9% 101% 839707 -0.0 V
2026-09-02 14:32:20 BB04 1.48% 3.9% 101% 839707 -0.0 V
2026-09-02 14:32:20 BB04 1.48% 3.9% 101% 839707 -0.0 V
2026-09-02 14:32:20 BB04 1.48% 3.9% 101% 839707 -0.0 V
2026-09-02 14:31:56 IIXF 856.07 hPa 14.38% 30.62°C 558.46 Ohm
2026-09-02 14:31:55 IIXF 856.07 hPa 14.38% 30.62°C 558.46 Ohm
2026-09-02 14:29:00 ah02 49.11% 25.36°C
2026-09-02 14:28:59 ah02 49.11% 25.36°C
2026-09-02 14:28:35 ah02 0.04% 14.6% 74% 60 3.93 V
2026-09-02 14:28:35 ah02 0.04% 14.6% 74% 60 3.93 V
2026-09-02 14:27:02 7274 1.07% 4.4% 100% 2365625 4.12 V
2026-09-02 14:27:02 7274 1.07% 4.4% 100% 2365625 4.12 V
2026-09-02 14:26:26 RLSC 996.82 hPa 60.24% 23.93°C
2026-09-02 14:26:26 RLSC 996.82 hPa 60.24% 23.93°C
2026-09-02 14:24:55 3bb8 1.78% 11.2% 101% 2334773 5.04 V
2026-09-02 14:24:55 3bb8 1.78% 11.2% 101% 2334773 5.04 V
2026-09-02 14:24:48 MONS 1.22% 2.3% 101% 18067 -0.0 V
2026-09-02 14:24:47 MONS 1.22% 2.3% 101% 18067 -0.0 V
2026-09-02 14:24:47 MONS 1.22% 2.3% 101% 18067 -0.0 V
2026-09-02 14:24:43 ah03
2026-09-02 14:24:42 ah03
2026-09-02 14:24:42 ah03
2026-09-02 14:24:41 MONS 1.22% 2.3% 101% 18067 -0.0 V
2026-09-02 14:24:40 MONS 1.22% 2.3% 101% 18067 -0.0 V
2026-09-02 14:24:40 MONS 1.22% 2.3% 101% 18067 -0.0 V
2026-09-02 14:24:38 ah03
2026-09-02 14:24:38 ah03
2026-09-02 14:24:36 ah03 0.72% 14.5% 84% 3855884 4.02 V
2026-09-02 14:24:35 ah03 0.72% 14.5% 84% 3855884 4.02 V
2026-09-02 14:24:35 ah03 0.72% 14.5% 84% 3855884 4.02 V
2026-09-02 14:24:32 ah03 696.34 hPa 66.5% 27.0°C
2026-09-02 14:24:31 ah03 0.72% 14.5% 84% 3855884 4.02 V
2026-09-02 14:24:31 ah03 0.72% 14.5% 84% 3855884 4.02 V
2026-09-02 14:24:22 EN60 1.67% 24.5% 100% 261941 7.8 V
2026-09-02 14:24:20 EN60 1.67% 24.5% 100% 261941 7.8 V
2026-09-02 14:24:20 EN60 1.67% 24.5% 100% 261941 7.8 V
2026-09-02 14:24:07 PTRH 0.44% 0.0% 55% 1388597 3.76 V
2026-09-02 14:24:06 PTRH 0.44% 0.0% 55% 1388597 3.76 V
2026-09-02 14:22:56 TG08 29.87°C
2026-09-02 14:22:55 TG08 0.94% 0.0% 92% 355600 4.07 V
2026-09-02 14:21:06 DJMH 0.3% 0.0% 92% 16875990 4.09 V
2026-09-02 14:21:06 DJMH 0.3% 0.0% 92% 16875990 4.09 V
2026-09-02 14:19:53 EEPr 0.31% 0.0% 101% 2260291 4.34 V
2026-09-02 14:19:52 EEPr 0.31% 0.0% 101% 2260291 4.34 V
2026-09-02 14:19:27 DOS 1.58% 6.5% 99% 184516 4.18 V
2026-09-02 14:19:25 DOS 1.58% 6.5% 99% 184516 4.18 V
2026-09-02 14:19:25 DOS 1.58% 6.5% 99% 184516 4.18 V
2026-09-02 14:19:07 DOS 1.58% 6.5% 99% 184516 4.18 V
2026-09-02 14:16:54 RF01 0.91% 5.7% 100% 1376617 4.2 V
2026-09-02 14:16:53 RF01 0.91% 5.7% 100% 1376617 4.2 V
2026-09-02 14:16:53 RF01 0.91% 5.7% 100% 1376617 4.2 V
2026-09-02 14:16:34 PMT2 27.0°C
2026-09-02 14:16:34 PMT2 27.0°C
2026-09-02 14:16:33 PMT2 27.0°C
2026-09-02 14:16:31 PMT2 27.0°C
2026-09-02 14:16:30 PMT2 27.0°C
2026-09-02 14:16:20 PMT2 1.27% 4.8% 101% 1756242 4.2 V
2026-09-02 14:16:18 PMT2 1.27% 4.8% 101% 1756242 4.2 V
2026-09-02 14:16:16 PMT2 1.27% 4.8% 101% 1756242 4.2 V
2026-09-02 14:16:16 PMT2 1.27% 4.8% 101% 1756242 4.2 V
2026-09-02 14:15:48 J8ke
2026-09-02 14:15:47 J8ke
2026-09-02 14:15:47 J8ke
2026-09-02 14:15:38 J8ke 0.38 V
2026-09-02 14:15:38 J8ke 0.38 V
2026-09-02 14:15:38 J8ke 0.38 V
2026-09-02 14:15:35 J8ke 0.63% 0.0% 101% 178016 5.01 V
2026-09-02 14:15:35 J8ke 0.63% 0.0% 101% 178016 5.01 V
2026-09-02 14:15:35 J8ke 0.38 V
2026-09-02 14:15:35 J8ke 0.38 V
2026-09-02 14:15:35 J8ke 0.38 V
2026-09-02 14:14:21 LMGB 0.33% 0.5% 101% 974404 -0.0 V
2026-09-02 14:14:20 LMGB 0.33% 0.5% 101% 974404 -0.0 V
2026-09-02 14:13:21 IIXF 1.53% 2.2% 101% 1122918 4.4 V
2026-09-02 14:13:21 IIXF 1.53% 2.2% 101% 1122918 4.4 V
2026-09-02 14:12:39 5RC 0.4% 0.0% 92% 333894 4.08 V
2026-09-02 14:12:39 5RC 0.4% 0.0% 92% 333894 4.08 V
2026-09-02 14:12:14 IIXF 856.44 hPa 14.65% 30.4°C 689.76 Ohm
2026-09-02 14:12:13 IIXF 856.44 hPa 14.65% 30.4°C 689.76 Ohm
2026-09-02 14:10:57 IIXF 856.44 hPa 14.65% 30.4°C 689.76 Ohm
2026-09-02 14:10:57 IIXF 856.44 hPa 14.65% 30.4°C 689.76 Ohm
2026-09-02 14:10:16 ah01 0.61% 1.7% 96% 6147728 4.15 V
2026-09-02 14:10:16 ah01 0.61% 1.7% 96% 6147728 4.15 V
2026-09-02 14:10:13 ah01 0.61% 1.7% 96% 6147728 4.15 V
2026-09-02 14:10:11 ah01 0.61% 1.7% 96% 6147728 4.15 V
2026-09-02 14:10:11 ah01 0.61% 1.7% 96% 6147728 4.15 V
2026-09-02 14:10:07 LRX1 0.93% 3.8% 101% 8149657 4.84 V
2026-09-02 14:10:07 LRX1 0.93% 3.8% 101% 8149657 4.84 V
2026-09-02 14:10:00 LRX1 1006.73 hPa 45.47% 22.32°C
2026-09-02 14:09:59 LRX1 1006.73 hPa 45.47% 22.32°C
2026-09-02 14:09:58 LRX1 1006.73 hPa 45.47% 22.32°C
2026-09-02 14:09:58 LRX1 1006.73 hPa 45.47% 22.32°C
2026-09-02 14:09:56 LRX1 0.93% 3.8% 101% 8149657 4.84 V
2026-09-02 14:09:56 LRX1 0.93% 3.8% 101% 8149657 4.84 V
2026-09-02 14:09:56 LRX1 0.93% 3.8% 101% 8149657 4.84 V
2026-09-02 14:09:04 dc64 0.84% 0.0% 96% 1267153 4.14 V
2026-09-02 14:09:02 dc64 0.84% 0.0% 96% 1267153 4.14 V
2026-09-02 14:09:02 dc64 0.84% 0.0% 96% 1267153 4.14 V
2026-09-02 14:08:06 LML2 0.33% 1.1% 100% 499058 4.15 V
2026-09-02 14:08:05 LML2 0.33% 1.1% 100% 499058 4.15 V
2026-09-02 14:06:32 MJTM 0.55% 7.8% 101% 4414297 4.22 V
2026-09-02 14:06:32 MJTM 0.55% 7.8% 101% 4414297 4.22 V
2026-09-02 14:06:32 MJTM 0.55% 7.8% 101% 4414297 4.22 V
2026-09-02 13:57:53 EN11 0.13% 3.2% 101% 11472 4.1 V
2026-09-02 13:57:52 EN11 0.13% 3.2% 101% 11472 4.1 V
2026-09-02 13:57:50 EEPa 853.45 hPa 43.38% 22.15°C
2026-09-02 13:57:50 EEPa 853.45 hPa 43.38% 22.15°C
2026-09-02 13:54:46 MONS 1.02% 4.2% 101% 16267 -0.0 V
2026-09-02 13:54:46 MONS 1.02% 4.2% 101% 16267 -0.0 V
2026-09-02 13:54:41 MONS 1.02% 4.2% 101% 16267 -0.0 V
2026-09-02 13:54:40 MONS 1.02% 4.2% 101% 16267 -0.0 V
2026-09-02 13:54:40 MONS 1.02% 4.2% 101% 16267 -0.0 V
2026-09-02 13:54:37 ah03 0.72% 7.7% 82% 3854052 4.01 V
2026-09-02 13:54:37 ah03 0.72% 7.7% 82% 3854052 4.01 V
2026-09-02 13:54:14 ah03
2026-09-02 13:54:13 ah03
2026-09-02 13:52:56 TG08 1.04% 0.0% 92% 353799 4.08 V
2026-09-02 13:52:56 TG08 31.85°C
2026-09-02 13:52:36 PMT2 26.72°C
2026-09-02 13:52:36 PMT2 26.72°C
2026-09-02 13:52:30 PMT2 26.72°C
2026-09-02 13:52:30 PMT2 26.72°C
2026-09-02 13:52:21 PMT2 0.93% 0.0% 101% 1754801 4.2 V
2026-09-02 13:52:21 IIXF 1.49% 4.6% 101% 1121658 4.41 V
2026-09-02 13:52:21 IIXF 1.49% 4.6% 101% 1121658 4.41 V
2026-09-02 13:52:20 PMT2 0.93% 0.0% 101% 1754801 4.2 V
2026-09-02 13:52:18 PMT2 0.93% 0.0% 101% 1754801 4.2 V
2026-09-02 13:52:16 PMT2 0.93% 0.0% 101% 1754801 4.2 V
2026-09-02 13:52:16 PMT2 0.93% 0.0% 101% 1754801 4.2 V
2026-09-02 13:52:10 ah01 0.78% 0.0% 96% 6146647 4.15 V
2026-09-02 13:52:10 ah01 0.78% 0.0% 96% 6146647 4.15 V
2026-09-02 13:51:01 7274 0.93% 3.3% 100% 2363465 4.13 V
2026-09-02 13:51:01 7274 0.93% 3.3% 100% 2363465 4.13 V
2026-09-02 13:50:51 DJMH 0.21% 0.0% 92% 16874190 4.09 V
2026-09-02 13:50:50 DJMH 0.21% 0.0% 92% 16874190 4.09 V
2026-09-02 13:49:47 EEPr 0.35% 0.0% 101% 2258485 4.34 V
2026-09-02 13:49:46 EEPr 0.35% 0.0% 101% 2258485 4.34 V
2026-09-02 13:49:44 IIXF 856.21 hPa 14.28% 30.54°C 650.37 Ohm
2026-09-02 13:49:44 IIXF 856.21 hPa 14.28% 30.54°C 650.37 Ohm
2026-09-02 13:48:11 Mex1 1.42% 2.0% 51% 23107 3.73 V
2026-09-02 13:48:10 Mex1 1.42% 2.0% 51% 23107 3.73 V
2026-09-02 13:48:09 Mex1 1.42% 2.0% 51% 23107 3.73 V
2026-09-02 13:48:06 PTRH 0.45% 0.0% 62% 1386436 3.82 V
2026-09-02 13:48:06 PTRH 0.45% 0.0% 62% 1386436 3.82 V
2026-09-02 13:48:03 Mex1 1.42% 2.0% 51% 23107 3.73 V
2026-09-02 13:48:03 Mex1 1.42% 2.0% 51% 23107 3.73 V
2026-09-02 13:47:25 EN01 0.15% 7.3% 71% 173629 3.91 V
2026-09-02 13:46:23 Rhee 0.03% 7.0% 100% 66 4.21 V
2026-09-02 13:46:22 Rhee 0.03% 7.0% 100% 66 4.21 V
2026-09-02 13:46:22 Rhee 0.03% 7.0% 100% 66 4.21 V
2026-09-02 13:46:00 LRX1 0.93% 4.6% 101% 8148217 4.84 V
2026-09-02 13:45:59 LRX1 0.93% 4.6% 101% 8148217 4.84 V
2026-09-02 13:45:59 LRX1 0.93% 4.6% 101% 8148217 4.84 V
2026-09-02 13:45:54 LRX1 1007.07 hPa 45.28% 22.5°C
2026-09-02 13:45:54 LRX1 1007.07 hPa 45.28% 22.5°C
2026-09-02 13:45:54 LRX1 1007.07 hPa 45.28% 22.5°C
2026-09-02 13:45:48 EEPa 0.2% 1.1% 100% 6785434 4.14 V
2026-09-02 13:45:48 EEPa 0.2% 1.1% 100% 6785434 4.14 V
2026-09-02 13:44:22 BB04 1.26% 0.0% 101% 836826 -0.0 V
2026-09-02 13:44:19 BB04 1.26% 0.0% 101% 836826 -0.0 V
2026-09-02 13:44:19 BB04 1.26% 0.0% 101% 836826 -0.0 V
2026-09-02 13:44:19 BB04 1.26% 0.0% 101% 836826 -0.0 V
2026-09-02 13:43:32 htec 3.0% 11.6% 101% 17478 4.24 V
2026-09-02 13:43:31 htec 3.0% 11.6% 101% 17478 4.24 V
2026-09-02 13:43:10 5RC 1012.73 hPa 36.19% 37.23°C
2026-09-02 13:43:10 5RC 1012.73 hPa 36.19% 37.23°C
2026-09-02 13:38:20 LMGB 0.26% 0.6% 101% 972244 -0.0 V
2026-09-02 13:38:20 LMGB 0.26% 0.6% 101% 972244 -0.0 V
2026-09-02 13:34:16 ah01 0.89% 0.0% 96% 6145566 4.15 V
2026-09-02 13:34:15 ah01 0.89% 0.0% 96% 6145566 4.15 V
2026-09-02 13:34:14 ah01 0.89% 0.0% 96% 6145566 4.15 V
2026-09-02 13:34:09 ah01 0.89% 0.0% 96% 6145566 4.15 V
2026-09-02 13:34:09 ah01 0.89% 0.0% 96% 6145566 4.15 V
2026-09-02 13:32:05 LML2 0.2% 1.8% 100% 496897 4.16 V
2026-09-02 13:32:05 LML2 0.2% 1.8% 100% 496897 4.16 V
2026-09-02 13:31:21 IIXF 1.41% 1.7% 101% 1120397 4.39 V
2026-09-02 13:31:21 IIXF 1.41% 1.7% 101% 1120397 4.39 V
2026-09-02 13:31:15 DOS 1.23% 5.2% 100% 181636 4.2 V
2026-09-02 13:31:14 DOS 1.23% 5.2% 100% 181636 4.2 V
2026-09-02 13:31:14 DOS 1.23% 5.2% 100% 181636 4.2 V
2026-09-02 13:31:06 DOS 1.23% 5.2% 100% 181636 4.2 V
2026-09-02 13:28:53 RF01 0.45% 10.6% 101% 1373736 4.21 V
2026-09-02 13:28:52 RF01 0.45% 10.6% 101% 1373736 4.21 V
2026-09-02 13:28:52 RF01 0.45% 10.6% 101% 1373736 4.21 V
2026-09-02 13:28:44 IIXF 856.53 hPa 13.94% 30.12°C 732.64 Ohm
2026-09-02 13:28:44 IIXF 856.53 hPa 13.94% 30.12°C 732.64 Ohm
2026-09-02 13:28:30 PMT2 26.64°C
2026-09-02 13:28:29 PMT2 26.64°C
2026-09-02 13:28:21 PMT2 0.78% 0.0% 101% 1753361 4.2 V
2026-09-02 13:28:20 PMT2 0.78% 0.0% 101% 1753361 4.2 V
2026-09-02 13:28:17 PMT2 0.78% 0.0% 101% 1753361 4.2 V
2026-09-02 13:28:15 PMT2 0.78% 0.0% 101% 1753361 4.2 V
2026-09-02 13:28:15 PMT2 0.78% 0.0% 101% 1753361 4.2 V
2026-09-02 13:26:39 ah02 52.8% 23.85°C
2026-09-02 13:26:39 ah02 52.8% 23.85°C
2026-09-02 13:26:17 ah02 0.04% 8.0% 73% 61 3.93 V
2026-09-02 13:26:16 ah02 0.04% 8.0% 73% 61 3.93 V
2026-09-02 13:26:16 ah02 0.04% 8.0% 73% 61 3.93 V
2026-09-02 13:26:14 ah02 0.04% 8.0% 73% 61 3.93 V
2026-09-02 13:26:13 ah02 0.04% 8.0% 73% 61 3.93 V
2026-09-02 13:24:44 MONS 0.48% 2.8% 101% 14467 -0.0 V
2026-09-02 13:24:44 MONS 0.48% 2.8% 101% 14467 -0.0 V
2026-09-02 13:24:44 MONS 0.48% 2.8% 101% 14467 -0.0 V
2026-09-02 13:24:41 MONS 0.48% 2.8% 101% 14467 -0.0 V
2026-09-02 13:24:40 MONS 0.48% 2.8% 101% 14467 -0.0 V
2026-09-02 13:24:40 MONS 0.48% 2.8% 101% 14467 -0.0 V
2026-09-02 13:24:33 dfba 0.53% 5.6% 52% 108090 3.74 V
2026-09-02 13:24:32 dfba 0.53% 5.6% 52% 108090 3.74 V
2026-09-02 13:23:52 ah03
2026-09-02 13:23:52 ah03 0.75% 5.5% 82% 3852230 4.0 V
2026-09-02 13:23:51 ah03 0.75% 5.5% 82% 3852230 4.0 V
2026-09-02 13:22:53 TG08 27.47°C
2026-09-02 13:22:53 TG08 0.76% 0.0% 93% 351997 4.09 V
2026-09-02 13:21:59 LRX1 0.9% 0.0% 101% 8146776 4.84 V
2026-09-02 13:21:58 LRX1 0.9% 0.0% 101% 8146776 4.84 V
2026-09-02 13:21:58 LRX1 0.9% 0.0% 101% 8146776 4.84 V
2026-09-02 13:21:58 LRX1 0.9% 0.0% 101% 8146776 4.84 V
2026-09-02 13:21:54 LRX1 1007.61 hPa 44.78% 22.52°C
2026-09-02 13:21:54 LRX1 1007.61 hPa 44.78% 22.52°C
2026-09-02 13:21:54 LRX1 1007.61 hPa 44.78% 22.52°C
2026-09-02 13:21:43 EEPa 854.24 hPa 45.58% 21.9°C
2026-09-02 13:21:43 EEPa 854.24 hPa 45.58% 21.9°C
2026-09-02 13:20:47 DJMH 0.29% 0.0% 92% 16872390 4.09 V
2026-09-02 13:20:47 DJMH 0.29% 0.0% 92% 16872390 4.09 V
2026-09-02 13:19:40 EEPr 0.26% 0.0% 101% 2256679 4.34 V
2026-09-02 13:19:40 EEPr 0.26% 0.0% 101% 2256679 4.34 V
2026-09-02 13:15:01 7274 0.89% 3.6% 100% 2361304 4.12 V
2026-09-02 13:15:01 7274 0.89% 3.6% 100% 2361304 4.12 V
2026-09-02 13:12:53 5RC 1013.2 hPa 40.86% 33.68°C
2026-09-02 13:12:26 5RC 0.48% 0.0% 91% 330293 4.08 V
2026-09-02 13:10:29 8848 24.8°C
2026-09-02 13:10:28 8848 24.8°C
2026-09-02 13:10:21 IIXF 1.42% 1.7% 101% 1119137 4.41 V
2026-09-02 13:10:21 IIXF 1.42% 1.7% 101% 1119137 4.41 V
2026-09-02 13:07:44 IIXF 857.19 hPa 16.17% 31.61°C 523.64 Ohm
2026-09-02 13:07:44 IIXF 857.19 hPa 16.17% 31.61°C 523.64 Ohm
2026-09-02 13:06:06 PTRH 0.4% 2.0% 61% 1383916 3.82 V
2026-09-02 13:06:06 PTRH 0.4% 2.0% 61% 1383916 3.82 V
2026-09-02 13:04:31 PMT2 25.95°C
2026-09-02 13:04:29 PMT2 25.95°C
2026-09-02 13:04:29 PMT2 25.95°C
2026-09-02 13:04:19 PMT2 0.94% 0.0% 101% 1751920 4.2 V
2026-09-02 13:04:19 PMT2 0.94% 0.0% 101% 1751920 4.2 V
2026-09-02 13:04:17 PMT2 0.94% 0.0% 101% 1751920 4.2 V
2026-09-02 13:04:15 PMT2 0.94% 0.0% 101% 1751920 4.2 V
2026-09-02 13:04:15 PMT2 0.94% 0.0% 101% 1751920 4.2 V
2026-09-02 13:02:43 EN58 1.06% 1.0% 80% 14949 3.99 V
2026-09-02 13:02:43 EN58 1.06% 1.0% 80% 14949 3.99 V
2026-09-02 13:02:20 LMGB 0.2% 0.0% 101% 970083 -0.0 V
2026-09-02 13:02:20 LMGB 0.2% 0.0% 101% 970083 -0.0 V
2026-09-02 12:58:16 ah01 0.64% 2.0% 96% 6143404 4.14 V
2026-09-02 12:58:16 ah01 0.64% 2.0% 96% 6143404 4.14 V
2026-09-02 12:58:07 ah01 0.64% 2.0% 96% 6143404 4.14 V
2026-09-02 12:58:07 ah01 0.64% 2.0% 96% 6143404 4.14 V
2026-09-02 12:57:58 LRX1 1008.08 hPa 44.96% 22.55°C
2026-09-02 12:57:58 LRX1 1008.08 hPa 44.96% 22.55°C
2026-09-02 12:57:58 LRX1 1008.08 hPa 44.96% 22.55°C
2026-09-02 12:57:57 LRX1 1008.08 hPa 44.96% 22.55°C
2026-09-02 12:57:53 EN11 0.06% 1.0% 101% 7869 4.1 V
2026-09-02 12:57:52 EN11 0.06% 1.0% 101% 7869 4.1 V
2026-09-02 12:54:46 MONS 0.49% 5.3% 101% 12667 -0.0 V
2026-09-02 12:54:46 MONS 0.49% 5.3% 101% 12667 -0.0 V
2026-09-02 12:54:46 MONS 0.49% 5.3% 101% 12667 -0.0 V
2026-09-02 12:54:42 MONS 0.49% 5.3% 101% 12667 -0.0 V
2026-09-02 12:54:42 MONS 0.49% 5.3% 101% 12667 -0.0 V
2026-09-02 12:54:42 MONS 0.49% 5.3% 101% 12667 -0.0 V
2026-09-02 12:53:18 ah03
2026-09-02 12:53:18 ah03
2026-09-02 12:53:18 ah03
2026-09-02 12:53:11 ah03 696.34 hPa 65.26% 27.0°C
2026-09-02 12:53:11 ah03 696.34 hPa 65.26% 27.0°C
2026-09-02 12:53:11 ah03 696.34 hPa 65.26% 27.0°C
2026-09-02 12:53:08 ah03 0.8% 15.9% 81% 3850392 4.0 V
2026-09-02 12:53:05 ah03 0.8% 15.9% 81% 3850392 4.0 V
2026-09-02 12:53:05 ah03 0.8% 15.9% 81% 3850392 4.0 V
2026-09-02 12:52:52 TG08 28.45°C
2026-09-02 12:52:52 TG08 0.95% 0.0% 93% 350196 4.1 V
2026-09-02 12:50:52 DJMH 0.32% 0.0% 92% 16870589 4.09 V
2026-09-02 12:50:52 DJMH 0.32% 0.0% 92% 16870589 4.09 V
2026-09-02 12:49:34 EEPr 0.25% 0.0% 101% 2254872 4.34 V
2026-09-02 12:49:34 EEPr 0.25% 0.0% 101% 2254872 4.34 V
2026-09-02 12:49:21 IIXF 1.48% 3.4% 101% 1117877 4.41 V
2026-09-02 12:49:21 IIXF 1.48% 3.4% 101% 1117877 4.41 V
2026-09-02 12:48:55 3bb8 1.74% 2.1% 101% 2329013 5.03 V
2026-09-02 12:48:54 3bb8 1.74% 2.1% 101% 2329013 5.03 V
2026-09-02 12:47:32 EN01 0.05% 0.0% 73% 170028 3.93 V
2026-09-02 12:47:32 EN01 0.05% 0.0% 73% 170028 3.93 V
2026-09-02 12:46:44 IIXF 857.5 hPa 16.62% 32.35°C 419.37 Ohm
2026-09-02 12:46:44 IIXF 857.5 hPa 16.62% 32.35°C 419.37 Ohm
2026-09-02 12:46:00 J8ke 0.38 V
2026-09-02 12:46:00 J8ke 0.38 V
2026-09-02 12:46:00 J8ke 0.38 V
2026-09-02 12:46:00 J8ke 0.38 V
2026-09-02 12:45:36 EEPa 854.82 hPa 47.29% 21.63°C
2026-09-02 12:45:36 EEPa 854.82 hPa 47.29% 21.63°C
2026-09-02 12:45:10 dc64 0.5% 2.3% 97% 1262113 4.16 V
2026-09-02 12:45:09 dc64 0.5% 2.3% 97% 1262113 4.16 V
2026-09-02 12:43:12 DOS 1.42% 3.7% 101% 178756 4.21 V
2026-09-02 12:43:11 DOS 1.42% 3.7% 101% 178756 4.21 V
2026-09-02 12:43:11 DOS 1.42% 3.7% 101% 178756 4.21 V
2026-09-02 12:43:06 DOS 1.42% 3.7% 101% 178756 4.21 V
2026-09-02 12:43:06 DOS 1.42% 3.7% 101% 178756 4.21 V
2026-09-02 12:40:58 RF01 0.54% 8.0% 101% 1370856 4.22 V
2026-09-02 12:40:58 RF01 0.54% 8.0% 101% 1370856 4.22 V
2026-09-02 12:40:58 RF01 0.54% 8.0% 101% 1370856 4.22 V
2026-09-02 12:40:58 RF01 0.54% 8.0% 101% 1370856 4.22 V
2026-09-02 12:40:52 RF01 0.54% 8.0% 101% 1370856 4.22 V
2026-09-02 12:40:52 RF01 0.54% 8.0% 101% 1370856 4.22 V
2026-09-02 12:40:52 RF01 0.54% 8.0% 101% 1370856 4.22 V
2026-09-02 12:40:34 PMT2 25.72°C
2026-09-02 12:40:32 PMT2 25.72°C
2026-09-02 12:40:32 PMT2 25.72°C
2026-09-02 12:40:29 PMT2 25.72°C
2026-09-02 12:40:28 PMT2 25.72°C
2026-09-02 12:40:15 PMT2 1.1% 11.0% 101% 1750480 4.2 V
2026-09-02 12:40:14 PMT2 1.1% 11.0% 101% 1750480 4.2 V
2026-09-02 12:39:01 7274 0.93% 2.3% 100% 2359144 4.12 V
2026-09-02 12:39:01 7274 0.93% 2.3% 100% 2359144 4.12 V
2026-09-02 12:38:40 tge0 2.9% 6.4% 96% 9791632 4.14 V
2026-09-02 12:38:40 tge0 2.9% 6.4% 96% 9791632 4.14 V
2026-09-02 12:37:15 ah01 0.6% 0.0% 96% 6142143 4.15 V
2026-09-02 12:37:09 ah01 0.6% 0.0% 96% 6142143 4.15 V
2026-09-02 12:37:09 ah01 0.6% 0.0% 96% 6142143 4.15 V
2026-09-02 12:36:17 htec 2.9% 4.1% 101% 13444 4.21 V
2026-09-02 12:36:16 htec 2.9% 4.1% 101% 13444 4.21 V
2026-09-02 12:33:56 LRX1 1008.43 hPa 45.31% 22.51°C
2026-09-02 12:33:55 LRX1 1008.43 hPa 45.31% 22.51°C
2026-09-02 12:33:55 LRX1 1008.43 hPa 45.31% 22.51°C
2026-09-02 12:33:55 LRX1 1008.43 hPa 45.31% 22.51°C
2026-09-02 12:31:24 RF03 0.19% 0.0% 99% 1139916 4.19 V
2026-09-02 12:31:23 RF03 0.19% 0.0% 99% 1139916 4.19 V
2026-09-02 12:28:21 IIXF 1.39% 1.1% 101% 1116617 4.33 V
2026-09-02 12:28:21 IIXF 1.39% 1.1% 101% 1116617 4.33 V
2026-09-02 12:28:06 PTRH 0.34% 0.0% 59% 1381636 3.8 V
2026-09-02 12:28:05 PTRH 0.34% 0.0% 59% 1381636 3.8 V
2026-09-02 12:26:20 LMGB 0.33% 1.6% 101% 967923 -0.0 V
2026-09-02 12:26:19 LMGB 0.33% 1.6% 101% 967923 -0.0 V
2026-09-02 12:25:44 IIXF 858.01 hPa 17.3% 32.83°C 348.14 Ohm
2026-09-02 12:25:44 IIXF 858.01 hPa 17.3% 32.83°C 348.14 Ohm
2026-09-02 12:24:44 MONS 0.52% 10.7% 101% 10867 -0.0 V
2026-09-02 12:24:44 MONS 0.52% 10.7% 101% 10867 -0.0 V
2026-09-02 12:24:42 dfba 0.49% 0.0% 54% 104489 3.76 V
2026-09-02 12:24:42 dfba 0.49% 0.0% 54% 104489 3.76 V
2026-09-02 12:24:41 MONS 0.52% 10.7% 101% 10867 -0.0 V
2026-09-02 12:24:41 MONS 0.52% 10.7% 101% 10867 -0.0 V
2026-09-02 12:24:41 MONS 0.52% 10.7% 101% 10867 -0.0 V
2026-09-02 12:23:57 ah02 0.04% 12.2% 73% 60 3.93 V
2026-09-02 12:23:56 ah02 0.04% 12.2% 73% 60 3.93 V
2026-09-02 12:23:56 ah02 0.04% 12.2% 73% 60 3.93 V
2026-09-02 12:22:16 ah03 696.34 hPa 62.79% 27.0°C
2026-09-02 12:22:16 ah03
2026-09-02 12:22:15 ah03 696.34 hPa 62.79% 27.0°C
2026-09-02 12:22:10 ah03 696.34 hPa 62.79% 27.0°C
2026-09-02 12:22:08 ah03 0.8% 13.8% 81% 3848532 4.0 V
2026-09-02 12:22:07 ah03 0.8% 13.8% 81% 3848532 4.0 V
2026-09-02 12:19:28 EEPr 0.22% 0.0% 101% 2253066 4.34 V
2026-09-02 12:19:27 EEPr 0.22% 0.0% 101% 2253066 4.34 V
2026-09-02 12:16:07 ah01 0.62% 0.0% 96% 6140882 4.14 V
2026-09-02 12:16:05 ah01 0.62% 0.0% 96% 6140882 4.14 V
2026-09-02 12:16:05 ah01 0.62% 0.0% 96% 6140882 4.14 V
2026-09-02 12:12:08 Mex1 1.34% 0.0% 38% 17346 3.61 V
2026-09-02 12:12:07 Mex1 1.34% 0.0% 38% 17346 3.61 V
2026-09-02 12:12:06 Mex1 1.34% 0.0% 38% 17346 3.61 V
2026-09-02 12:12:05 Mex1 1.34% 0.0% 38% 17346 3.61 V
2026-09-02 12:12:03 Mex1 1.34% 0.0% 38% 17346 3.61 V
2026-09-02 12:12:03 Mex1 1.34% 0.0% 38% 17346 3.61 V
2026-09-02 12:10:38 PMT2 25.33°C
2026-09-02 12:10:38 PMT2 25.33°C
2026-09-02 12:10:30 PMT2 25.33°C
2026-09-02 12:10:28 PMT2 25.33°C
2026-09-02 12:10:27 PMT2 25.33°C
2026-09-02 12:10:23 PMT2 0.94% 0.0% 101% 1748679 4.2 V
2026-09-02 12:10:23 PMT2 0.94% 0.0% 101% 1748679 4.2 V
2026-09-02 12:10:20 8848 24.37°C
2026-09-02 12:10:19 PMT2 0.94% 0.0% 101% 1748679 4.2 V
2026-09-02 12:10:18 PMT2 0.94% 0.0% 101% 1748679 4.2 V
2026-09-02 12:10:18 8848 24.37°C
2026-09-02 12:10:18 8848 24.37°C
2026-09-02 12:10:17 LRX1 1008.64 hPa 45.2% 22.54°C
2026-09-02 12:10:17 LRX1 1008.64 hPa 45.2% 22.54°C
2026-09-02 12:10:14 PMT2 0.94% 0.0% 101% 1748679 4.2 V
2026-09-02 12:10:14 PMT2 0.94% 0.0% 101% 1748679 4.2 V
2026-09-02 12:09:56 LRX1 1008.64 hPa 45.2% 22.54°C
2026-09-02 12:09:56 LRX1 1008.64 hPa 45.2% 22.54°C
2026-09-02 12:09:54 8848 0.32% 2.1% 36% 18054 3.74 V
2026-09-02 12:09:54 8848 0.32% 2.1% 36% 18054 3.74 V
2026-09-02 12:09:53 LRX1 1008.64 hPa 45.2% 22.54°C
2026-09-02 12:09:53 LRX1 1008.64 hPa 45.2% 22.54°C
2026-09-02 12:09:43 fe8a 0.35% 0.0% 39% 18055 3.74 V
2026-09-02 12:09:43 fe8a 0.35% 0.0% 39% 18055 3.74 V
2026-09-02 12:09:28 EEPa 855.4 hPa 51.6% 21.37°C
2026-09-02 12:09:28 EEPa 855.4 hPa 51.6% 21.37°C
2026-09-02 12:08:30 BB04 1.54% 2.0% 101% 831066 -0.0 V
2026-09-02 12:08:29 BB04 1.54% 2.0% 101% 831066 -0.0 V
Visit MeshInfo-Lite on Github. Also visit the original MeshInfo by Kevin Elliott.